Time;durP1;ratioP1;P1;durP2;ratioP2;P2;SDS_P1;SDS_P2;PMS_P1;PMS_P2;Temp;Humidity;BMP_temperature;BMP_pressure;BME280_temperature;BME280_humidity;BME280_pressure;Samples;Min_cycle;Max_cycle;Signal;HPM_P1;HPM_P2
2022/01/16 00:00:22;;;;;;;23.60;12.30;;;;;;;-2.31;100.00;96872.25;5022778;28;21056;-76
2022/01/16 00:05:26;;;;;;;27.13;12.57;;;;;;;-2.34;100.00;96849.22;5031107;28;20471;-76
2022/01/16 00:07:53;;;;;;;29.43;12.80;;;;;;;-2.35;100.00;96847.53;5022405;28;20468;-76
2022/01/16 00:10:20;;;;;;;29.73;14.03;;;;;;;-2.33;100.00;96866.34;5014308;28;20472;-76
2022/01/16 00:12:52;;;;;;;29.63;14.50;;;;;;;-2.40;100.00;96858.03;5037712;28;20551;-76
2022/01/16 00:15:22;;;;;;;33.80;14.73;;;;;;;-2.38;100.00;96869.13;5014472;28;20481;-76
2022/01/16 00:18:09;;;;;;;29.43;14.40;;;;;;;-2.38;100.00;96879.44;5019791;28;20440;-76
2022/01/16 00:20:35;;;;;;;29.17;13.90;;;;;;;-2.38;100.00;96874.28;5040984;28;20432;-75
2022/01/16 00:23:05;;;;;;;34.60;15.60;;;;;;;-2.38;100.00;96875.09;4997611;28;20452;-75
2022/01/16 00:25:30;;;;;;;33.37;16.43;;;;;;;-2.39;100.00;96870.00;5027316;28;20765;-76
2022/01/16 00:27:56;;;;;;;34.80;15.67;;;;;;;-2.33;100.00;96846.56;5041152;28;20522;-76
2022/01/16 00:30:21;;;;;;;34.53;15.60;;;;;;;-2.34;100.00;96837.19;5031270;28;20084;-76
2022/01/16 00:32:47;;;;;;;30.63;13.60;;;;;;;-2.31;100.00;96855.06;5033353;28;20574;-76
2022/01/16 00:35:14;;;;;;;27.67;13.23;;;;;;;-2.26;100.00;96857.44;5022175;28;20393;-76
2022/01/16 00:37:40;;;;;;;33.77;15.40;;;;;;;-2.27;100.00;96823.13;5022630;28;20423;-76
2022/01/16 00:40:08;;;;;;;30.10;14.33;;;;;;;-2.29;100.00;96842.13;5013824;28;20486;-76
2022/01/16 00:42:34;;;;;;;30.07;13.73;;;;;;;-2.28;100.00;96852.38;5010553;28;20546;-76
2022/01/16 00:44:59;;;;;;;26.97;12.53;;;;;;;-2.26;100.00;96858.28;5022786;28;20563;-75
2022/01/16 00:47:25;;;;;;;28.87;13.97;;;;;;;-2.24;100.00;96858.22;5016184;28;20069;-76
2022/01/16 00:49:52;;;;;;;26.77;12.40;;;;;;;-2.27;100.00;96856.63;5022774;28;20083;-76
2022/01/16 00:52:19;;;;;;;29.27;14.50;;;;;;;-2.25;100.00;96834.19;5025569;28;20037;-76
2022/01/16 00:54:44;;;;;;;24.30;12.67;;;;;;;-2.24;100.00;96835.03;5037049;28;20476;-76
2022/01/16 00:57:10;;;;;;;23.07;11.70;;;;;;;-2.18;100.00;96840.75;5039595;28;20505;-76
2022/01/16 00:59:36;;;;;;;22.43;10.97;;;;;;;-2.30;100.00;96854.16;5040437;28;20029;-76
2022/01/16 01:02:02;;;;;;;24.03;12.23;;;;;;;-2.24;100.00;96845.34;5016962;28;20044;-76
2022/01/16 01:04:28;;;;;;;28.73;13.77;;;;;;;-2.27;100.00;96868.66;5046527;28;20091;-75
2022/01/16 01:06:55;;;;;;;23.17;11.23;;;;;;;-2.29;100.00;96868.72;5026203;28;20060;-76
2022/01/16 01:09:20;;;;;;;23.33;11.40;;;;;;;-2.28;100.00;96861.81;5051327;28;20060;-76
2022/01/16 01:11:49;;;;;;;24.60;12.37;;;;;;;-2.39;100.00;96867.44;5042703;28;20479;-75
2022/01/16 01:14:25;;;;;;;24.00;11.37;;;;;;;-2.40;100.00;96882.03;5020782;28;20104;-76
2022/01/16 01:16:55;;;;;;;21.90;11.47;;;;;;;-2.45;100.00;96883.13;5006639;28;20541;-75
2022/01/16 01:19:26;;;;;;;21.50;10.60;;;;;;;-2.51;100.00;96878.25;5030049;28;20475;-76
2022/01/16 01:21:53;;;;;;;24.67;12.77;;;;;;;-2.54;100.00;96814.84;5026065;28;20459;-76
2022/01/16 01:24:19;;;;;;;25.47;10.10;;;;;;;-2.52;100.00;96778.72;5025806;28;20796;-75
2022/01/16 01:27:10;;;;;;;26.37;13.20;;;;;;;-2.53;100.00;96779.63;5020493;28;20933;-76
2022/01/16 01:29:35;;;;;;;28.27;12.87;;;;;;;-2.48;100.00;96785.41;5031928;28;20802;-76
2022/01/16 01:32:01;;;;;;;27.23;13.20;;;;;;;-2.49;100.00;96791.47;5027618;28;20462;-76
2022/01/16 01:34:27;;;;;;;26.57;12.73;;;;;;;-2.45;100.00;96785.25;5039903;28;20515;-76
2022/01/16 01:36:53;;;;;;;25.03;11.77;;;;;;;-2.46;100.00;96825.63;5004264;28;21221;-75
2022/01/16 01:39:20;;;;;;;26.53;11.87;;;;;;;-2.57;100.00;96843.28;5028262;28;20397;-75
2022/01/16 01:41:49;;;;;;;31.57;13.33;;;;;;;-2.47;100.00;96852.31;5029817;28;20088;-76
2022/01/16 01:52:29;;;;;;;29.17;12.90;;;;;;;-2.53;100.00;96859.44;5022274;28;20460;-75
2022/01/16 01:54:54;;;;;;;25.87;11.60;;;;;;;-2.46;100.00;96851.41;5031440;28;20487;-75
2022/01/16 01:57:20;;;;;;;25.20;11.43;;;;;;;-2.55;100.00;96846.63;5039684;28;20037;-76
2022/01/16 01:59:46;;;;;;;25.03;11.70;;;;;;;-2.61;100.00;96850.31;5002826;28;20476;-75
2022/01/16 02:02:11;;;;;;;21.17;11.40;;;;;;;-2.59;100.00;96854.53;5035158;28;20043;-76
2022/01/16 02:04:38;;;;;;;25.77;12.00;;;;;;;-2.65;100.00;96859.06;5015938;28;20033;-76
2022/01/16 02:07:04;;;;;;;24.83;11.90;;;;;;;-2.66;100.00;96862.53;5038019;28;20021;-76
2022/01/16 02:09:32;;;;;;;26.40;11.93;;;;;;;-2.65;100.00;96871.06;5037554;28;20458;-76
2022/01/16 02:11:58;;;;;;;22.70;10.73;;;;;;;-2.64;100.00;96873.59;5016944;28;20060;-76
2022/01/16 02:28:20;;;;;;;21.80;11.27;;;;;;;-2.87;100.00;96859.09;5023559;28;20479;-76
2022/01/16 02:31:17;;;;;;;22.67;10.87;;;;;;;-2.89;100.00;96860.03;5038314;28;20487;-76
2022/01/16 02:36:43;;;;;;;21.30;9.35;;;;;;;-2.91;100.00;96869.59;5040038;28;20805;-75
2022/01/16 02:39:13;;;;;;;26.77;12.30;;;;;;;-2.96;100.00;96856.03;5013201;28;20106;-76
2022/01/16 02:41:41;;;;;;;25.27;12.13;;;;;;;-2.99;100.00;96863.88;5015370;28;20033;-76
2022/01/16 02:45:00;;;;;;;26.33;12.00;;;;;;;-3.05;100.00;96862.41;5016984;28;20468;-76
2022/01/16 02:46:58;;;;;;;19.80;9.73;;;;;;;-3.11;100.00;96862.66;5007091;28;20478;-76
2022/01/16 02:49:31;;;;;;;22.03;10.97;;;;;;;-3.10;100.00;96864.31;5015470;28;20527;-76
2022/01/16 02:52:08;;;;;;;18.80;9.27;;;;;;;-3.13;100.00;96860.13;5005083;28;20475;-76
2022/01/16 02:54:37;;;;;;;23.97;11.13;;;;;;;-3.19;100.00;96855.22;5036757;28;20985;-76
2022/01/16 02:57:05;;;;;;;22.73;12.20;;;;;;;-3.19;100.00;96844.91;4991428;28;20468;-76
2022/01/16 02:59:31;;;;;;;19.97;10.20;;;;;;;-3.23;100.00;96832.25;5031216;28;20459;-75
2022/01/16 03:01:57;;;;;;;26.37;11.77;;;;;;;-3.26;100.00;96838.34;5000788;28;20537;-75
2022/01/16 03:04:23;;;;;;;24.90;11.63;;;;;;;-3.30;100.00;96836.81;5000636;28;20033;-76
2022/01/16 03:06:48;;;;;;;24.50;11.23;;;;;;;-3.25;100.00;96840.03;4988646;28;20030;-76
2022/01/16 03:09:15;;;;;;;21.97;10.93;;;;;;;-3.29;100.00;96833.31;5027754;28;20060;-76
2022/01/16 03:11:46;;;;;;;25.13;12.43;;;;;;;-3.28;100.00;96827.31;5033873;28;20044;-76
2022/01/16 03:14:18;;;;;;;21.10;11.03;;;;;;;-3.34;100.00;96819.81;5019182;28;20574;-75
2022/01/16 03:16:49;;;;;;;23.20;12.17;;;;;;;-3.34;100.00;96824.97;5048953;28;20440;-76
2022/01/16 03:22:03;;;;;;;23.00;11.03;;;;;;;-3.45;100.00;96825.38;5024818;28;20743;-76
2022/01/16 03:24:42;;;;;;;24.27;11.53;;;;;;;-3.48;100.00;96830.66;5030627;28;20471;-76
2022/01/16 03:27:10;;;;;;;22.60;12.03;;;;;;;-3.50;100.00;96824.72;5005965;28;20460;-76
2022/01/16 03:29:37;;;;;;;25.53;11.33;;;;;;;-3.53;100.00;96829.97;5019507;28;20540;-75
2022/01/16 03:32:05;;;;;;;24.90;12.10;;;;;;;-3.57;100.00;96831.00;5031508;28;20509;-76
2022/01/16 03:34:31;;;;;;;28.07;12.23;;;;;;;-3.55;100.00;96836.91;5012602;28;21028;-76
2022/01/16 03:36:57;;;;;;;25.40;11.63;;;;;;;-3.60;100.00;96839.66;5035325;28;20586;-75
2022/01/16 03:39:23;;;;;;;25.20;11.63;;;;;;;-3.66;100.00;96833.91;5004173;28;20589;-76
2022/01/16 03:41:50;;;;;;;24.23;11.40;;;;;;;-3.64;100.00;96835.53;5015215;28;20041;-75
2022/01/16 03:44:16;;;;;;;23.47;11.10;;;;;;;-3.76;100.00;96830.84;5014794;28;20899;-76
2022/01/16 03:46:43;;;;;;;22.70;11.53;;;;;;;-3.64;100.00;96830.38;5014552;28;20474;-75
2022/01/16 03:49:18;;;;;;;25.30;12.53;;;;;;;-3.69;100.00;96836.59;5010399;28;20467;-76
2022/01/16 03:51:47;;;;;;;25.13;11.80;;;;;;;-3.68;100.00;96825.44;5037028;28;20444;-76
2022/01/16 03:54:15;;;;;;;24.73;11.80;;;;;;;-3.64;100.00;96826.97;5018808;28;21048;-75
2022/01/16 03:56:41;;;;;;;26.23;13.23;;;;;;;-3.59;100.00;96825.91;4999649;28;21572;-76
2022/01/16 03:59:07;;;;;;;22.90;11.30;;;;;;;-3.63;100.00;96839.75;5011230;28;20495;-75
2022/01/16 04:01:33;;;;;;;26.33;12.00;;;;;;;-3.61;100.00;96840.56;5018109;28;20487;-76
2022/01/16 04:04:01;;;;;;;28.33;13.03;;;;;;;-3.54;100.00;96833.44;5007412;28;20033;-76
2022/01/16 04:06:27;;;;;;;27.77;13.57;;;;;;;-3.58;100.00;96827.59;5027830;28;20026;-76
2022/01/16 04:08:54;;;;;;;28.93;12.10;;;;;;;-3.58;100.00;96832.72;5022552;28;20703;-76
2022/01/16 04:11:22;;;;;;;33.63;12.90;;;;;;;-3.58;100.00;96826.75;5025048;28;20465;-76
2022/01/16 04:13:53;;;;;;;42.87;13.93;;;;;;;-3.61;100.00;96832.00;4998845;28;20498;-76
2022/01/16 04:16:23;;;;;;;33.33;14.80;;;;;;;-3.62;100.00;96836.31;5004051;28;20572;-76
2022/01/16 04:18:53;;;;;;;65.27;15.13;;;;;;;-3.67;100.00;96843.34;5003103;28;20468;-76
2022/01/16 04:21:21;;;;;;;129.23;18.70;;;;;;;-3.71;100.00;96843.53;5036964;28;20518;-76
2022/01/16 04:23:48;;;;;;;35.20;13.10;;;;;;;-3.67;100.00;96848.50;5011852;28;20463;-76
2022/01/16 04:26:15;;;;;;;105.47;15.50;;;;;;;-3.77;100.00;96842.00;5002885;28;20559;-77
2022/01/16 04:28:41;;;;;;;57.77;13.47;;;;;;;-3.71;100.00;96841.78;5024838;28;20463;-76
2022/01/16 04:31:08;;;;;;;63.03;15.07;;;;;;;-3.83;100.00;96829.38;4999716;28;20489;-76
2022/01/16 04:33:34;;;;;;;82.33;13.43;;;;;;;-3.89;100.00;96832.19;5044478;28;21071;-76
2022/01/16 04:36:00;;;;;;;62.23;14.70;;;;;;;-3.96;100.00;96829.00;5004035;28;20472;-75
2022/01/16 04:38:26;;;;;;;47.80;14.17;;;;;;;-3.86;100.00;96821.78;5028300;28;20471;-76
2022/01/16 04:43:48;;;;;;;57.47;13.30;;;;;;;-3.91;100.00;96829.69;5020593;28;20463;-75
2022/01/16 04:46:19;;;;;;;47.20;13.20;;;;;;;-3.95;100.00;96819.59;5037530;28;20490;-75
2022/01/16 04:48:45;;;;;;;49.00;13.43;;;;;;;-3.94;100.00;96821.25;5015134;28;20542;-76
2022/01/16 04:51:11;;;;;;;62.13;14.27;;;;;;;-3.95;100.00;96832.44;5017367;28;21050;-75
2022/01/16 04:53:38;;;;;;;54.97;14.10;;;;;;;-3.97;100.00;96824.75;5021955;28;21006;-75
2022/01/16 04:56:04;;;;;;;98.70;16.47;;;;;;;-4.05;100.00;96817.34;5029610;28;20452;-76
2022/01/16 04:58:30;;;;;;;65.93;15.43;;;;;;;-4.05;100.00;96819.91;5031444;28;20917;-75
2022/01/16 05:00:56;;;;;;;118.73;16.67;;;;;;;-4.00;100.00;96816.34;5022414;28;20558;-76
2022/01/16 05:03:24;;;;;;;58.40;15.30;;;;;;;-4.00;100.00;96814.59;5013521;28;20032;-76
2022/01/16 05:05:51;;;;;;;48.47;14.13;;;;;;;-3.99;100.00;96815.44;5012559;28;20032;-75
2022/01/16 05:08:16;;;;;;;93.70;18.33;;;;;;;-3.98;100.00;96814.56;5016486;28;20476;-76
2022/01/16 05:10:42;;;;;;;98.03;17.10;;;;;;;-3.92;100.00;96809.19;5025157;28;20988;-75
2022/01/16 05:18:34;;;;;;;110.87;19.77;;;;;;;-4.04;100.00;96813.88;5033785;28;22028;-75
2022/01/16 05:21:00;;;;;;;111.07;17.73;;;;;;;-3.94;100.00;96813.53;5014998;28;20464;-76
2022/01/16 05:23:29;;;;;;;90.90;16.03;;;;;;;-3.94;100.00;96805.84;5022603;28;20025;-75
2022/01/16 05:25:55;;;;;;;57.23;16.60;;;;;;;-3.92;100.00;96811.75;5024515;28;20032;-76
2022/01/16 05:28:22;;;;;;;56.93;17.27;;;;;;;-3.86;100.00;96808.94;4996335;28;20480;-75
2022/01/16 05:30:47;;;;;;;85.23;17.17;;;;;;;-3.92;100.00;96822.03;5039369;28;20506;-76
2022/01/16 05:33:13;;;;;;;81.90;17.83;;;;;;;-3.88;100.00;96824.44;5027994;28;20467;-76
2022/01/16 05:35:39;;;;;;;120.47;19.43;;;;;;;-3.93;100.00;96820.34;4996059;28;20041;-76
2022/01/16 05:38:06;;;;;;;153.77;20.93;;;;;;;-3.89;100.00;96822.78;5026962;28;20033;-74
2022/01/16 05:40:31;;;;;;;94.07;18.47;;;;;;;-3.83;100.00;96834.53;5000010;28;20060;-76
2022/01/16 05:42:58;;;;;;;46.47;16.43;;;;;;;-3.74;100.00;96843.63;5013039;28;20452;-76
2022/01/16 05:45:25;;;;;;;51.10;15.57;;;;;;;-3.69;100.00;96831.44;4995452;28;20486;-76
2022/01/16 05:47:50;;;;;;;43.07;16.80;;;;;;;-3.64;100.00;96834.69;5014887;28;20462;-76
2022/01/16 05:50:16;;;;;;;89.43;17.37;;;;;;;-3.71;100.00;96846.94;5020801;28;20469;-76
2022/01/16 05:52:42;;;;;;;54.10;17.50;;;;;;;-3.64;100.00;96834.69;5009735;28;20029;-76
2022/01/16 05:55:09;;;;;;;59.40;17.10;;;;;;;-3.61;100.00;96835.41;5018033;28;20540;-76
2022/01/16 05:57:36;;;;;;;83.40;19.83;;;;;;;-3.65;100.00;96827.88;5012721;28;20468;-76
2022/01/16 06:00:06;;;;;;;42.37;18.77;;;;;;;-3.56;100.00;96830.91;5015633;28;20468;-75
2022/01/16 06:02:33;;;;;;;57.00;20.63;;;;;;;-3.52;100.00;96838.50;5017580;28;20473;-75
2022/01/16 06:04:59;;;;;;;60.83;18.27;;;;;;;-3.54;100.00;96843.72;5005757;28;21085;-76
2022/01/16 06:07:25;;;;;;;54.07;19.87;;;;;;;-3.51;100.00;96853.91;5001400;28;20041;-75
2022/01/16 06:09:52;;;;;;;93.23;23.17;;;;;;;-3.51;100.00;96863.34;4995514;28;20478;-75
2022/01/16 06:12:19;;;;;;;67.70;17.70;;;;;;;-3.49;100.00;96856.41;5035031;28;20466;-75
2022/01/16 06:14:45;;;;;;;89.53;18.73;;;;;;;-3.57;100.00;96864.41;5000449;28;20468;-76
2022/01/16 06:17:12;;;;;;;83.67;18.83;;;;;;;-3.50;100.00;96860.72;4999777;28;20492;-76
2022/01/16 06:19:38;;;;;;;83.23;20.90;;;;;;;-3.68;100.00;96846.81;5003660;28;20475;-76
2022/01/16 06:22:04;;;;;;;136.07;22.53;;;;;;;-3.70;100.00;96858.88;5026313;28;21203;-75
2022/01/16 06:24:29;;;;;;;57.93;19.83;;;;;;;-3.60;100.00;96865.34;5005789;28;20036;-75
2022/01/16 06:26:55;;;;;;;106.40;21.23;;;;;;;-3.63;100.00;96864.63;5017415;28;20447;-76
2022/01/16 06:29:21;;;;;;;63.60;20.20;;;;;;;-3.59;100.00;96877.34;5020470;28;20040;-75
2022/01/16 06:31:47;;;;;;;66.97;19.83;;;;;;;-3.53;100.00;96885.69;5038059;28;20387;-76
2022/01/16 06:34:13;;;;;;;49.00;19.37;;;;;;;-3.53;100.00;96881.38;5013223;28;20460;-75
2022/01/16 06:36:39;;;;;;;44.87;20.37;;;;;;;-3.48;100.00;96871.78;5022650;28;20025;-75
2022/01/16 06:39:07;;;;;;;77.40;20.07;;;;;;;-3.49;100.00;96882.94;5037362;28;20450;-76
2022/01/16 06:41:34;;;;;;;63.57;20.30;;;;;;;-3.54;100.00;96889.16;5022946;28;20360;-75
2022/01/16 06:44:00;;;;;;;48.57;20.07;;;;;;;-3.50;100.00;96885.59;5047026;28;20463;-76
2022/01/16 06:46:26;;;;;;;83.27;21.80;;;;;;;-3.56;100.00;96894.34;5017726;28;21012;-76
2022/01/16 06:48:52;;;;;;;63.80;21.07;;;;;;;-3.52;100.00;96902.78;5008474;28;20475;-75
2022/01/16 06:51:19;;;;;;;54.20;21.13;;;;;;;-3.53;100.00;96906.25;5003957;28;20814;-76
2022/01/16 06:53:46;;;;;;;67.87;21.93;;;;;;;-3.51;100.00;96907.88;5011095;28;20026;-76
2022/01/16 06:56:12;;;;;;;72.73;22.80;;;;;;;-3.50;100.00;96903.59;5011629;28;20866;-75
2022/01/16 06:58:38;;;;;;;60.43;21.50;;;;;;;-3.53;100.00;96904.53;5034100;28;20463;-76
2022/01/16 07:01:04;;;;;;;71.17;21.77;;;;;;;-3.45;100.00;96901.69;5016505;28;20499;-75
2022/01/16 07:03:29;;;;;;;63.03;22.77;;;;;;;-3.48;100.00;96909.53;5042861;28;20025;-75
2022/01/16 07:05:57;;;;;;;58.43;22.93;;;;;;;-3.50;100.00;96904.41;5031074;28;20140;-76
2022/01/16 07:08:25;;;;;;;59.77;22.00;;;;;;;-3.47;100.00;96911.19;5006733;28;20037;-75
2022/01/16 07:10:50;;;;;;;79.67;23.73;;;;;;;-3.50;100.00;96914.69;5007963;28;20476;-76
2022/01/16 07:13:17;;;;;;;88.00;23.57;;;;;;;-3.51;100.00;96925.06;5033679;28;20456;-75
2022/01/16 07:15:43;;;;;;;74.33;23.43;;;;;;;-3.49;100.00;96924.09;5046887;28;20088;-75
2022/01/16 07:18:09;;;;;;;84.73;23.70;;;;;;;-3.59;100.00;96928.75;5040646;28;20557;-75
2022/01/16 07:20:35;;;;;;;65.60;21.33;;;;;;;-3.60;100.00;96929.63;5000063;28;20497;-76
2022/01/16 07:23:00;;;;;;;83.90;23.67;;;;;;;-3.63;100.00;96928.91;5002055;28;20025;-75
2022/01/16 07:25:26;;;;;;;67.87;21.63;;;;;;;-3.64;100.00;96929.78;5019153;28;20026;-75
2022/01/16 07:27:52;;;;;;;60.27;24.30;;;;;;;-3.64;100.00;96938.34;4998812;28;20056;-75
2022/01/16 07:30:17;;;;;;;59.33;23.93;;;;;;;-3.71;100.00;96954.88;5006034;28;20490;-76
2022/01/16 07:32:43;;;;;;;65.00;22.23;;;;;;;-3.72;100.00;96957.50;5020906;28;20025;-76
2022/01/16 07:35:09;;;;;;;57.53;21.87;;;;;;;-3.63;100.00;96950.28;5003376;28;20075;-75
2022/01/16 07:37:35;;;;;;;86.93;23.30;;;;;;;-3.57;100.00;96957.78;5001073;28;20026;-75
2022/01/16 07:40:00;;;;;;;81.20;23.87;;;;;;;-3.51;100.00;96958.47;5016148;28;20560;-76
2022/01/16 07:42:26;;;;;;;70.80;25.77;;;;;;;-3.50;100.00;96942.97;5021946;28;20542;-76
2022/01/16 07:44:52;;;;;;;71.60;25.33;;;;;;;-3.45;100.00;96956.53;5041943;28;20025;-76
2022/01/16 07:47:19;;;;;;;95.97;27.37;;;;;;;-3.42;100.00;96961.56;4999289;28;20486;-75
2022/01/16 07:49:44;;;;;;;71.73;23.90;;;;;;;-3.37;100.00;96963.94;5033470;28;20043;-76
2022/01/16 07:52:11;;;;;;;115.73;24.93;;;;;;;-3.50;100.00;96957.56;5016566;28;20472;-76
2022/01/16 07:54:37;;;;;;;99.07;23.67;;;;;;;-3.49;100.00;96961.81;5009742;28;20048;-76
2022/01/16 07:57:04;;;;;;;118.30;24.97;;;;;;;-3.54;100.00;96966.31;5016358;28;20468;-75
2022/01/16 07:59:30;;;;;;;122.73;25.30;;;;;;;-3.63;100.00;96947.72;5030921;28;20037;-74
2022/01/16 08:01:56;;;;;;;88.33;22.13;;;;;;;-3.64;100.00;96956.34;5023740;28;20471;-76
2022/01/16 08:04:22;;;;;;;79.17;22.53;;;;;;;-3.55;100.00;96957.75;5036082;28;21211;-75
2022/01/16 08:06:47;;;;;;;82.80;24.97;;;;;;;-3.58;100.00;96961.25;5031216;28;20022;-76
2022/01/16 08:09:13;;;;;;;61.47;23.90;;;;;;;-3.46;100.00;96956.56;5017536;28;20037;-76
2022/01/16 08:11:38;;;;;;;67.87;22.20;;;;;;;-3.51;100.00;96955.91;5034336;28;20068;-76
2022/01/16 08:14:04;;;;;;;68.07;20.80;;;;;;;-3.57;100.00;96952.66;5002158;28;20037;-75
2022/01/16 08:16:31;;;;;;;99.93;21.80;;;;;;;-3.65;100.00;96958.97;5014898;28;20039;-75
2022/01/16 08:18:56;;;;;;;52.60;18.33;;;;;;;-3.67;100.00;96950.47;5018313;28;20035;-76
2022/01/16 08:21:22;;;;;;;73.77;19.50;;;;;;;-3.71;100.00;96949.75;5019001;28;21040;-76
2022/01/16 08:23:48;;;;;;;76.17;20.20;;;;;;;-3.69;100.00;96950.53;5034484;28;20024;-76
2022/01/16 08:26:14;;;;;;;48.63;17.47;;;;;;;-3.67;100.00;96950.47;5036282;28;20033;-75
2022/01/16 08:28:40;;;;;;;62.60;20.20;;;;;;;-3.64;100.00;96965.78;5035723;28;20032;-75
2022/01/16 08:31:05;;;;;;;56.67;18.87;;;;;;;-3.62;100.00;96970.00;5028443;28;20032;-76
2022/01/16 08:33:31;;;;;;;69.87;18.93;;;;;;;-3.60;100.00;96975.91;5017507;28;20493;-75
2022/01/16 08:35:56;;;;;;;45.10;17.03;;;;;;;-3.57;100.00;96972.38;5001125;28;20102;-76
2022/01/16 08:38:23;;;;;;;54.70;18.87;;;;;;;-3.51;100.00;96976.47;5030801;28;20155;-76
2022/01/16 08:40:49;;;;;;;48.63;17.93;;;;;;;-3.51;100.00;96981.63;5007603;28;20040;-76
2022/01/16 08:43:16;;;;;;;56.13;18.83;;;;;;;-3.63;100.00;96977.75;5019783;28;20436;-76
2022/01/16 08:45:42;;;;;;;69.27;18.50;;;;;;;-3.45;100.00;96977.09;5020225;28;20427;-76
2022/01/16 08:48:09;;;;;;;75.77;19.10;;;;;;;-3.42;100.00;96981.25;5017867;28;20444;-76
2022/01/16 08:50:36;;;;;;;49.03;17.87;;;;;;;-3.33;100.00;96986.06;4996475;28;20036;-76
2022/01/16 08:53:04;;;;;;;51.53;21.20;;;;;;;-3.33;100.00;96986.91;5012439;28;21078;-76
2022/01/16 08:55:33;;;;;;;64.97;28.67;;;;;;;-3.37;100.00;96994.81;4995556;28;20465;-76
2022/01/16 08:57:59;;;;;;;64.87;24.57;;;;;;;-3.30;100.00;96990.28;5033802;28;20549;-76
2022/01/16 09:00:27;;;;;;;64.57;18.80;;;;;;;-3.41;100.00;96995.81;5011117;28;20500;-76
2022/01/16 09:02:57;;;;;;;87.50;20.83;;;;;;;-3.43;100.00;96995.03;5020018;28;20108;-76
2022/01/16 09:05:22;;;;;;;56.47;18.93;;;;;;;-3.36;100.00;97002.44;5020487;28;20798;-76
2022/01/16 09:07:48;;;;;;;64.60;19.80;;;;;;;-3.30;100.00;97008.28;5002341;28;20508;-75
2022/01/16 09:10:14;;;;;;;51.60;19.13;;;;;;;-3.11;100.00;97017.00;5033786;28;20092;-76
2022/01/16 09:12:40;;;;;;;54.23;21.27;;;;;;;-3.15;100.00;97010.31;5010497;28;20049;-76
2022/01/16 09:15:08;;;;;;;49.50;20.97;;;;;;;-3.03;100.00;97009.84;5020005;28;20060;-76
2022/01/16 09:17:34;;;;;;;55.57;23.47;;;;;;;-3.13;100.00;97008.50;5011063;28;20029;-76
2022/01/16 09:19:59;;;;;;;54.83;25.93;;;;;;;-3.05;100.00;97013.34;5015399;28;21226;-76
2022/01/16 09:22:26;;;;;;;48.67;23.40;;;;;;;-3.00;100.00;97009.72;5012087;28;20042;-76
2022/01/16 09:24:52;;;;;;;57.80;25.57;;;;;;;-3.01;100.00;97008.06;5016907;28;20049;-76
2022/01/16 09:27:18;;;;;;;57.97;26.37;;;;;;;-2.90;100.00;97005.06;5010486;28;20464;-76
2022/01/16 09:29:45;;;;;;;58.50;26.73;;;;;;;-2.82;100.00;97009.91;5022916;28;20033;-76
2022/01/16 09:32:13;;;;;;;57.90;27.57;;;;;;;-2.70;100.00;96996.59;4998459;28;20480;-75
2022/01/16 09:34:42;;;;;;;51.20;24.47;;;;;;;-2.66;100.00;97011.84;5042930;28;20469;-76
2022/01/16 09:37:09;;;;;;;52.70;26.07;;;;;;;-2.66;100.00;97014.41;4996796;28;20893;-76
2022/01/16 09:39:36;;;;;;;48.63;23.40;;;;;;;-2.63;100.00;97026.34;5012773;28;20472;-76
2022/01/16 09:42:03;;;;;;;50.10;24.63;;;;;;;-2.62;100.00;97034.03;4993335;28;21331;-75
2022/01/16 09:44:29;;;;;;;48.90;23.77;;;;;;;-2.55;100.00;97036.34;5006813;28;20522;-76
2022/01/16 09:46:57;;;;;;;53.17;22.57;;;;;;;-2.61;100.00;97030.53;5018446;28;20439;-76
2022/01/16 09:49:24;;;;;;;53.60;24.63;;;;;;;-2.61;100.00;97033.13;5011375;28;20468;-76
2022/01/16 09:51:51;;;;;;;57.47;27.50;;;;;;;-2.59;100.00;97045.94;4992859;28;20471;-76
2022/01/16 09:54:20;;;;;;;49.20;24.67;;;;;;;-2.59;100.00;97045.09;5025795;28;20459;-76
2022/01/16 09:56:46;;;;;;;52.10;26.40;;;;;;;-2.52;100.00;97054.25;4991977;28;20503;-76
2022/01/16 09:59:12;;;;;;;50.67;26.40;;;;;;;-2.52;100.00;97052.50;4997566;28;20493;-76
2022/01/16 10:01:38;;;;;;;46.83;25.40;;;;;;;-2.52;100.00;97047.34;5014578;28;20031;-77
2022/01/16 10:04:04;;;;;;;60.23;27.10;;;;;;;-2.43;100.00;97049.59;5044739;28;20497;-76
2022/01/16 10:06:30;;;;;;;58.57;30.20;;;;;;;-2.38;100.00;97044.28;5025917;28;20457;-75
2022/01/16 10:08:56;;;;;;;61.90;29.53;;;;;;;-2.27;100.00;97038.69;5007617;28;20482;-76
2022/01/16 10:11:28;;;;;;;57.60;28.97;;;;;;;-2.20;100.00;97047.84;5016154;28;20037;-76
2022/01/16 10:14:46;;;;;;;59.43;28.73;;;;;;;-2.04;100.00;97040.34;5034737;28;20440;-75
2022/01/16 10:16:44;;;;;;;58.70;27.97;;;;;;;-1.98;100.00;97045.22;4999255;28;20486;-75
2022/01/16 10:19:22;;;;;;;56.73;28.00;;;;;;;-1.93;100.00;97036.41;5029223;28;20469;-75
2022/01/16 10:21:49;;;;;;;59.30;28.30;;;;;;;-1.90;100.00;97046.59;5012247;28;20108;-75
2022/01/16 10:24:30;;;;;;;55.97;27.73;;;;;;;-1.86;100.00;97041.31;5028934;28;20472;-75
2022/01/16 10:27:07;;;;;;;56.03;27.23;;;;;;;-1.86;100.00;97049.06;5014926;28;20472;-75
2022/01/16 10:29:49;;;;;;;56.13;28.80;;;;;;;-1.83;100.00;97042.03;5023430;28;20542;-75
2022/01/16 10:32:28;;;;;;;57.50;28.47;;;;;;;-1.77;100.00;97033.22;5028167;28;20469;-78
2022/01/16 10:35:08;;;;;;;54.57;27.17;;;;;;;-1.73;100.00;97030.44;5011887;28;20463;-76
2022/01/16 10:37:34;;;;;;;51.77;26.73;;;;;;;-1.63;100.00;97025.72;5008187;28;21031;-77
2022/01/16 10:40:09;;;;;;;53.23;26.67;;;;;;;-1.65;100.00;97022.38;5035794;28;20554;-76
2022/01/16 10:42:39;;;;;;;49.57;23.07;;;;;;;-1.66;100.00;97029.28;5021891;28;21008;-76
2022/01/16 10:45:12;;;;;;;52.87;23.77;;;;;;;-1.59;100.00;97034.16;5018081;28;20476;-78
2022/01/16 10:47:41;;;;;;;44.85;20.65;;;;;;;-1.55;100.00;97041.69;5013524;28;20479;-76
2022/01/16 10:50:20;;;;;;;52.83;24.40;;;;;;;-1.50;100.00;97044.09;5008242;28;20123;-76
2022/01/16 10:53:05;;;;;;;52.33;24.00;;;;;;;-1.55;100.00;97046.88;5003887;28;20528;-75
2022/01/16 10:55:35;;;;;;;55.60;27.33;;;;;;;-1.47;100.00;97049.13;4993806;28;20479;-76
2022/01/16 10:58:12;;;;;;;48.63;24.13;;;;;;;-1.45;100.00;97055.06;4989859;28;20476;-76
2022/01/16 11:00:44;;;;;;;47.70;21.77;;;;;;;-1.42;100.00;97047.19;5026002;28;21083;-76
2022/01/16 11:03:12;;;;;;;41.33;21.50;;;;;;;-1.43;100.00;97050.69;5002899;28;21227;-77
2022/01/16 11:05:41;;;;;;;41.60;21.73;;;;;;;-1.43;100.00;97046.34;5026665;28;20447;-76
2022/01/16 11:08:22;;;;;;;47.77;21.83;;;;;;;-1.43;100.00;97048.94;5024020;28;20970;-76
2022/01/16 11:10:54;;;;;;;44.83;21.67;;;;;;;-1.46;100.00;97050.81;5029006;28;20435;-76
2022/01/16 11:13:27;;;;;;;49.03;23.93;;;;;;;-1.61;100.00;97062.63;5038086;28;20455;-76
2022/01/16 11:15:58;;;;;;;48.10;24.92;;;;;;;-1.72;100.00;97060.47;5019253;28;20458;-76
2022/01/16 11:18:26;;;;;;;52.07;25.83;;;;;;;-1.74;100.00;97064.88;4996343;28;20037;-76
2022/01/16 11:21:42;;;;;;;51.50;26.93;;;;;;;-1.60;100.00;97068.63;5023940;28;20494;-77
2022/01/16 11:26:22;;;;;;;56.57;26.53;;;;;;;-1.58;100.00;97059.88;5009379;28;20475;-76
2022/01/16 11:28:51;;;;;;;56.07;28.90;;;;;;;-1.58;100.00;97059.06;4992258;28;20518;-76
2022/01/16 11:31:17;;;;;;;53.93;26.90;;;;;;;-1.52;100.00;97072.53;5014447;28;20634;-76
2022/01/16 11:33:44;;;;;;;57.77;28.00;;;;;;;-1.52;100.00;97077.69;5022671;28;20519;-77
2022/01/16 11:36:17;;;;;;;64.07;29.07;;;;;;;-1.51;100.00;97074.22;5009939;28;20542;-76
2022/01/16 11:38:49;;;;;;;55.53;24.75;;;;;;;-1.52;100.00;97069.94;5012078;28;20464;-76
2022/01/16 11:41:19;;;;;;;54.33;27.77;;;;;;;-1.53;100.00;97078.59;5009605;28;20038;-75
2022/01/16 11:43:50;;;;;;;57.90;28.47;;;;;;;-1.50;100.00;97085.38;5006399;28;20470;-76
2022/01/16 11:46:18;;;;;;;61.10;26.47;;;;;;;-1.51;100.00;97083.69;5027360;28;20443;-76
2022/01/16 11:49:01;;;;;;;55.03;27.73;;;;;;;-1.49;100.00;97071.56;5011229;28;20522;-76
2022/01/16 11:54:09;;;;;;;58.37;29.57;;;;;;;-1.51;100.00;97078.53;5028661;28;20446;-76
2022/01/16 11:56:42;;;;;;;65.63;29.57;;;;;;;-1.47;100.00;97083.50;5015309;28;20513;-78